sensor_id;sensor_type;location;lat;lon;timestamp;P1;durP1;ratioP1;P2;durP2;ratioP2
58990;SDS011;44781;53.444;14.476;2023-05-07T00:01:18;11.80;;;7.00;;
58990;SDS011;44781;53.444;14.476;2023-05-07T00:03:52;11.30;;;6.80;;
58990;SDS011;44781;53.444;14.476;2023-05-07T00:06:19;10.40;;;7.10;;
58990;SDS011;44781;53.444;14.476;2023-05-07T00:08:46;12.40;;;8.50;;
58990;SDS011;44781;53.444;14.476;2023-05-07T00:11:20;14.20;;;9.30;;
58990;SDS011;44781;53.444;14.476;2023-05-07T00:13:53;14.40;;;10.20;;
58990;SDS011;44781;53.444;14.476;2023-05-07T00:16:20;13.80;;;9.60;;
58990;SDS011;44781;53.444;14.476;2023-05-07T00:18:47;15.40;;;11.20;;
58990;SDS011;44781;53.444;14.476;2023-05-07T00:21:14;15.70;;;11.20;;
58990;SDS011;44781;53.444;14.476;2023-05-07T00:23:41;14.70;;;10.40;;
58990;SDS011;44781;53.444;14.476;2023-05-07T00:26:10;14.10;;;10.40;;
58990;SDS011;44781;53.444;14.476;2023-05-07T00:28:37;13.30;;;9.70;;
58990;SDS011;44781;53.444;14.476;2023-05-07T00:31:07;13.20;;;8.40;;
58990;SDS011;44781;53.444;14.476;2023-05-07T00:33:37;10.60;;;7.40;;
58990;SDS011;44781;53.444;14.476;2023-05-07T00:36:05;12.20;;;7.50;;
58990;SDS011;44781;53.444;14.476;2023-05-07T00:38:32;14.00;;;7.50;;
58990;SDS011;44781;53.444;14.476;2023-05-07T00:40:59;10.40;;;6.70;;
58990;SDS011;44781;53.444;14.476;2023-05-07T00:43:28;10.90;;;6.50;;
58990;SDS011;44781;53.444;14.476;2023-05-07T00:45:58;9.30;;;6.10;;
58990;SDS011;44781;53.444;14.476;2023-05-07T00:48:25;9.90;;;6.30;;
58990;SDS011;44781;53.444;14.476;2023-05-07T00:50:52;10.70;;;5.80;;
58990;SDS011;44781;53.444;14.476;2023-05-07T00:53:20;8.70;;;5.50;;
58990;SDS011;44781;53.444;14.476;2023-05-07T00:55:47;10.70;;;6.20;;
58990;SDS011;44781;53.444;14.476;2023-05-07T00:58:15;11.10;;;6.10;;
58990;SDS011;44781;53.444;14.476;2023-05-07T01:00:43;9.50;;;6.20;;
58990;SDS011;44781;53.444;14.476;2023-05-07T01:03:10;10.70;;;6.30;;
58990;SDS011;44781;53.444;14.476;2023-05-07T01:05:36;9.80;;;6.30;;
58990;SDS011;44781;53.444;14.476;2023-05-07T01:08:03;10.20;;;6.10;;
58990;SDS011;44781;53.444;14.476;2023-05-07T01:10:32;10.30;;;6.00;;
58990;SDS011;44781;53.444;14.476;2023-05-07T01:12:59;12.20;;;6.40;;
58990;SDS011;44781;53.444;14.476;2023-05-07T01:15:26;9.40;;;6.10;;
58990;SDS011;44781;53.444;14.476;2023-05-07T01:17:54;10.00;;;5.60;;
58990;SDS011;44781;53.444;14.476;2023-05-07T01:20:26;9.10;;;5.70;;
58990;SDS011;44781;53.444;14.476;2023-05-07T01:22:55;9.50;;;5.80;;
58990;SDS011;44781;53.444;14.476;2023-05-07T01:25:23;8.60;;;5.90;;
58990;SDS011;44781;53.444;14.476;2023-05-07T01:27:52;8.70;;;5.80;;
58990;SDS011;44781;53.444;14.476;2023-05-07T01:30:21;9.40;;;6.00;;
58990;SDS011;44781;53.444;14.476;2023-05-07T01:32:53;11.10;;;6.60;;
58990;SDS011;44781;53.444;14.476;2023-05-07T01:35:27;9.50;;;5.90;;
58990;SDS011;44781;53.444;14.476;2023-05-07T01:37:58;10.20;;;5.90;;
58990;SDS011;44781;53.444;14.476;2023-05-07T01:40:27;9.20;;;5.70;;
58990;SDS011;44781;53.444;14.476;2023-05-07T01:42:56;10.30;;;5.90;;
58990;SDS011;44781;53.444;14.476;2023-05-07T01:45:39;9.80;;;5.80;;
58990;SDS011;44781;53.444;14.476;2023-05-07T01:48:07;9.60;;;6.00;;
58990;SDS011;44781;53.444;14.476;2023-05-07T01:50:36;10.00;;;5.80;;
58990;SDS011;44781;53.444;14.476;2023-05-07T01:53:03;10.20;;;6.40;;
58990;SDS011;44781;53.444;14.476;2023-05-07T01:55:30;9.40;;;6.50;;
58990;SDS011;44781;53.444;14.476;2023-05-07T01:57:57;9.50;;;6.30;;
58990;SDS011;44781;53.444;14.476;2023-05-07T02:00:25;9.20;;;5.70;;
58990;SDS011;44781;53.444;14.476;2023-05-07T02:02:51;10.50;;;6.40;;
58990;SDS011;44781;53.444;14.476;2023-05-07T02:05:27;10.40;;;6.80;;
58990;SDS011;44781;53.444;14.476;2023-05-07T02:08:09;10.10;;;6.80;;
58990;SDS011;44781;53.444;14.476;2023-05-07T02:10:36;11.90;;;6.50;;
58990;SDS011;44781;53.444;14.476;2023-05-07T02:13:05;9.30;;;6.10;;
58990;SDS011;44781;53.444;14.476;2023-05-07T02:15:33;10.10;;;5.80;;
58990;SDS011;44781;53.444;14.476;2023-05-07T02:18:05;11.00;;;6.90;;
58990;SDS011;44781;53.444;14.476;2023-05-07T02:20:33;11.70;;;7.20;;
58990;SDS011;44781;53.444;14.476;2023-05-07T02:23:00;9.90;;;6.50;;
58990;SDS011;44781;53.444;14.476;2023-05-07T02:25:27;13.70;;;7.20;;
58990;SDS011;44781;53.444;14.476;2023-05-07T02:27:54;12.70;;;6.60;;
58990;SDS011;44781;53.444;14.476;2023-05-07T02:30:23;10.70;;;6.60;;
58990;SDS011;44781;53.444;14.476;2023-05-07T02:32:51;10.70;;;7.50;;
58990;SDS011;44781;53.444;14.476;2023-05-07T02:35:18;10.90;;;6.50;;
58990;SDS011;44781;53.444;14.476;2023-05-07T02:37:45;9.50;;;6.10;;
58990;SDS011;44781;53.444;14.476;2023-05-07T02:40:13;9.30;;;6.10;;
58990;SDS011;44781;53.444;14.476;2023-05-07T02:42:40;11.20;;;6.90;;
58990;SDS011;44781;53.444;14.476;2023-05-07T02:45:07;10.80;;;7.10;;
58990;SDS011;44781;53.444;14.476;2023-05-07T02:47:35;10.80;;;7.10;;
58990;SDS011;44781;53.444;14.476;2023-05-07T02:50:02;11.00;;;6.90;;
58990;SDS011;44781;53.444;14.476;2023-05-07T02:52:30;10.50;;;7.00;;
58990;SDS011;44781;53.444;14.476;2023-05-07T02:54:57;9.40;;;6.40;;
58990;SDS011;44781;53.444;14.476;2023-05-07T02:57:23;9.90;;;6.30;;
58990;SDS011;44781;53.444;14.476;2023-05-07T02:59:52;11.40;;;6.90;;
58990;SDS011;44781;53.444;14.476;2023-05-07T03:02:19;10.00;;;6.50;;
58990;SDS011;44781;53.444;14.476;2023-05-07T03:04:48;10.50;;;6.50;;
58990;SDS011;44781;53.444;14.476;2023-05-07T03:07:15;9.30;;;6.70;;
58990;SDS011;44781;53.444;14.476;2023-05-07T03:09:42;11.00;;;7.00;;
58990;SDS011;44781;53.444;14.476;2023-05-07T03:12:09;9.70;;;6.40;;
58990;SDS011;44781;53.444;14.476;2023-05-07T03:14:36;10.70;;;7.00;;
58990;SDS011;44781;53.444;14.476;2023-05-07T03:17:03;10.70;;;7.10;;
58990;SDS011;44781;53.444;14.476;2023-05-07T03:19:30;10.40;;;6.70;;
58990;SDS011;44781;53.444;14.476;2023-05-07T03:21:57;10.10;;;6.20;;
58990;SDS011;44781;53.444;14.476;2023-05-07T03:24:24;11.00;;;6.40;;
58990;SDS011;44781;53.444;14.476;2023-05-07T03:26:51;9.80;;;6.60;;
58990;SDS011;44781;53.444;14.476;2023-05-07T03:29:18;12.30;;;7.10;;
58990;SDS011;44781;53.444;14.476;2023-05-07T03:31:46;10.20;;;6.30;;
58990;SDS011;44781;53.444;14.476;2023-05-07T03:34:13;11.70;;;6.30;;
58990;SDS011;44781;53.444;14.476;2023-05-07T03:36:39;9.80;;;7.10;;
58990;SDS011;44781;53.444;14.476;2023-05-07T03:39:08;11.70;;;7.30;;
58990;SDS011;44781;53.444;14.476;2023-05-07T03:41:38;10.50;;;6.70;;
58990;SDS011;44781;53.444;14.476;2023-05-07T03:44:05;9.40;;;6.20;;
58990;SDS011;44781;53.444;14.476;2023-05-07T03:46:32;10.00;;;6.40;;
58990;SDS011;44781;53.444;14.476;2023-05-07T03:49:00;10.40;;;6.30;;
58990;SDS011;44781;53.444;14.476;2023-05-07T03:51:27;11.90;;;6.70;;
58990;SDS011;44781;53.444;14.476;2023-05-07T03:53:54;10.50;;;6.70;;
58990;SDS011;44781;53.444;14.476;2023-05-07T03:56:24;9.40;;;6.30;;
58990;SDS011;44781;53.444;14.476;2023-05-07T03:58:57;11.90;;;6.80;;
58990;SDS011;44781;53.444;14.476;2023-05-07T04:01:24;10.90;;;6.40;;
58990;SDS011;44781;53.444;14.476;2023-05-07T04:03:51;9.70;;;6.50;;
58990;SDS011;44781;53.444;14.476;2023-05-07T04:06:18;9.90;;;6.70;;
58990;SDS011;44781;53.444;14.476;2023-05-07T04:08:46;10.70;;;6.70;;
58990;SDS011;44781;53.444;14.476;2023-05-07T04:11:13;10.80;;;6.70;;
58990;SDS011;44781;53.444;14.476;2023-05-07T04:13:40;10.00;;;6.40;;
58990;SDS011;44781;53.444;14.476;2023-05-07T04:16:08;9.60;;;6.20;;
58990;SDS011;44781;53.444;14.476;2023-05-07T04:18:36;11.30;;;6.40;;
58990;SDS011;44781;53.444;14.476;2023-05-07T04:21:04;9.90;;;5.90;;
58990;SDS011;44781;53.444;14.476;2023-05-07T04:23:31;10.70;;;6.20;;
58990;SDS011;44781;53.444;14.476;2023-05-07T04:26:01;11.60;;;7.10;;
58990;SDS011;44781;53.444;14.476;2023-05-07T04:28:35;9.80;;;6.10;;
58990;SDS011;44781;53.444;14.476;2023-05-07T04:31:02;10.90;;;6.30;;
58990;SDS011;44781;53.444;14.476;2023-05-07T04:33:32;11.60;;;7.00;;
58990;SDS011;44781;53.444;14.476;2023-05-07T04:36:03;11.00;;;7.10;;
58990;SDS011;44781;53.444;14.476;2023-05-07T04:38:31;10.30;;;6.70;;
58990;SDS011;44781;53.444;14.476;2023-05-07T04:41:02;11.90;;;6.60;;
58990;SDS011;44781;53.444;14.476;2023-05-07T04:43:31;10.60;;;6.00;;
58990;SDS011;44781;53.444;14.476;2023-05-07T04:45:57;10.10;;;6.20;;
58990;SDS011;44781;53.444;14.476;2023-05-07T04:48:25;10.00;;;6.30;;
58990;SDS011;44781;53.444;14.476;2023-05-07T04:50:53;10.60;;;6.70;;
58990;SDS011;44781;53.444;14.476;2023-05-07T04:53:20;11.10;;;6.60;;
58990;SDS011;44781;53.444;14.476;2023-05-07T04:55:48;10.90;;;6.00;;
58990;SDS011;44781;53.444;14.476;2023-05-07T04:58:15;11.30;;;6.00;;
58990;SDS011;44781;53.444;14.476;2023-05-07T05:00:42;9.90;;;6.10;;
58990;SDS011;44781;53.444;14.476;2023-05-07T05:03:10;11.40;;;6.10;;
58990;SDS011;44781;53.444;14.476;2023-05-07T05:05:38;10.80;;;6.90;;
58990;SDS011;44781;53.444;14.476;2023-05-07T05:08:05;9.20;;;6.10;;
58990;SDS011;44781;53.444;14.476;2023-05-07T05:10:32;10.10;;;6.20;;
58990;SDS011;44781;53.444;14.476;2023-05-07T05:12:59;11.80;;;6.10;;
58990;SDS011;44781;53.444;14.476;2023-05-07T05:15:28;9.90;;;5.70;;
58990;SDS011;44781;53.444;14.476;2023-05-07T05:17:55;9.90;;;5.70;;
58990;SDS011;44781;53.444;14.476;2023-05-07T05:20:22;11.20;;;5.80;;
58990;SDS011;44781;53.444;14.476;2023-05-07T05:22:49;10.20;;;6.40;;
58990;SDS011;44781;53.444;14.476;2023-05-07T05:25:16;9.20;;;6.00;;
58990;SDS011;44781;53.444;14.476;2023-05-07T05:27:43;9.90;;;6.40;;
58990;SDS011;44781;53.444;14.476;2023-05-07T05:30:10;10.60;;;6.20;;
58990;SDS011;44781;53.444;14.476;2023-05-07T05:32:38;9.80;;;6.10;;
58990;SDS011;44781;53.444;14.476;2023-05-07T05:35:06;10.50;;;6.40;;
58990;SDS011;44781;53.444;14.476;2023-05-07T05:37:33;10.40;;;5.90;;
58990;SDS011;44781;53.444;14.476;2023-05-07T05:40:01;10.40;;;6.50;;
58990;SDS011;44781;53.444;14.476;2023-05-07T05:42:29;9.50;;;5.90;;
58990;SDS011;44781;53.444;14.476;2023-05-07T05:44:56;10.80;;;6.20;;
58990;SDS011;44781;53.444;14.476;2023-05-07T05:47:23;9.20;;;6.20;;
58990;SDS011;44781;53.444;14.476;2023-05-07T05:49:50;9.80;;;6.10;;
58990;SDS011;44781;53.444;14.476;2023-05-07T05:52:17;10.00;;;6.20;;
58990;SDS011;44781;53.444;14.476;2023-05-07T05:54:44;10.10;;;6.40;;
58990;SDS011;44781;53.444;14.476;2023-05-07T05:57:11;8.30;;;5.70;;
58990;SDS011;44781;53.444;14.476;2023-05-07T05:59:38;9.80;;;5.80;;
58990;SDS011;44781;53.444;14.476;2023-05-07T06:02:06;9.40;;;6.20;;
58990;SDS011;44781;53.444;14.476;2023-05-07T06:04:43;11.00;;;5.80;;
58990;SDS011;44781;53.444;14.476;2023-05-07T06:07:10;10.10;;;5.90;;
58990;SDS011;44781;53.444;14.476;2023-05-07T06:09:37;11.80;;;6.30;;
58990;SDS011;44781;53.444;14.476;2023-05-07T06:12:03;10.30;;;5.90;;
58990;SDS011;44781;53.444;14.476;2023-05-07T06:14:31;10.00;;;6.20;;
58990;SDS011;44781;53.444;14.476;2023-05-07T06:16:58;10.10;;;6.00;;
58990;SDS011;44781;53.444;14.476;2023-05-07T06:19:24;10.50;;;6.10;;
58990;SDS011;44781;53.444;14.476;2023-05-07T06:21:54;9.60;;;6.00;;
58990;SDS011;44781;53.444;14.476;2023-05-07T06:24:23;9.70;;;5.80;;
58990;SDS011;44781;53.444;14.476;2023-05-07T06:26:51;10.60;;;6.20;;
58990;SDS011;44781;53.444;14.476;2023-05-07T06:29:18;8.90;;;5.90;;
58990;SDS011;44781;53.444;14.476;2023-05-07T06:31:45;10.60;;;5.70;;
58990;SDS011;44781;53.444;14.476;2023-05-07T06:34:12;9.50;;;5.70;;
58990;SDS011;44781;53.444;14.476;2023-05-07T06:36:42;9.70;;;5.80;;
58990;SDS011;44781;53.444;14.476;2023-05-07T06:39:20;9.20;;;5.70;;
58990;SDS011;44781;53.444;14.476;2023-05-07T06:41:48;8.80;;;5.30;;
58990;SDS011;44781;53.444;14.476;2023-05-07T06:44:22;9.80;;;5.70;;
58990;SDS011;44781;53.444;14.476;2023-05-07T06:46:59;8.80;;;4.80;;
58990;SDS011;44781;53.444;14.476;2023-05-07T06:49:27;9.70;;;5.30;;
58990;SDS011;44781;53.444;14.476;2023-05-07T06:51:54;9.00;;;5.30;;
58990;SDS011;44781;53.444;14.476;2023-05-07T06:54:21;10.50;;;5.30;;
58990;SDS011;44781;53.444;14.476;2023-05-07T06:57:01;9.80;;;5.60;;
58990;SDS011;44781;53.444;14.476;2023-05-07T06:59:47;9.70;;;4.80;;
58990;SDS011;44781;53.444;14.476;2023-05-07T07:02:18;9.60;;;5.10;;
58990;SDS011;44781;53.444;14.476;2023-05-07T07:04:47;9.20;;;4.70;;
58990;SDS011;44781;53.444;14.476;2023-05-07T07:07:14;8.10;;;4.80;;
58990;SDS011;44781;53.444;14.476;2023-05-07T07:09:49;7.10;;;4.30;;
58990;SDS011;44781;53.444;14.476;2023-05-07T07:12:40;9.20;;;5.10;;
58990;SDS011;44781;53.444;14.476;2023-05-07T07:15:15;8.20;;;5.60;;
58990;SDS011;44781;53.444;14.476;2023-05-07T07:18:00;8.10;;;5.40;;
58990;SDS011;44781;53.444;14.476;2023-05-07T07:20:27;9.00;;;4.80;;
58990;SDS011;44781;53.444;14.476;2023-05-07T07:22:55;9.30;;;5.20;;
58990;SDS011;44781;53.444;14.476;2023-05-07T07:25:22;7.80;;;4.50;;
58990;SDS011;44781;53.444;14.476;2023-05-07T07:27:50;8.40;;;4.90;;
58990;SDS011;44781;53.444;14.476;2023-05-07T07:30:17;8.30;;;4.40;;
58990;SDS011;44781;53.444;14.476;2023-05-07T07:32:47;9.00;;;4.50;;
58990;SDS011;44781;53.444;14.476;2023-05-07T07:35:15;8.40;;;4.40;;
58990;SDS011;44781;53.444;14.476;2023-05-07T07:37:46;8.10;;;4.30;;
58990;SDS011;44781;53.444;14.476;2023-05-07T07:40:16;8.10;;;4.50;;
58990;SDS011;44781;53.444;14.476;2023-05-07T07:42:44;8.90;;;4.70;;
58990;SDS011;44781;53.444;14.476;2023-05-07T07:45:11;9.30;;;4.20;;
58990;SDS011;44781;53.444;14.476;2023-05-07T07:47:41;11.20;;;4.70;;
58990;SDS011;44781;53.444;14.476;2023-05-07T07:50:09;7.50;;;4.30;;
58990;SDS011;44781;53.444;14.476;2023-05-07T07:52:36;7.80;;;4.40;;
58990;SDS011;44781;53.444;14.476;2023-05-07T07:55:04;7.10;;;3.80;;
58990;SDS011;44781;53.444;14.476;2023-05-07T07:57:51;9.00;;;4.60;;
58990;SDS011;44781;53.444;14.476;2023-05-07T08:00:33;6.30;;;3.70;;
58990;SDS011;44781;53.444;14.476;2023-05-07T08:03:04;7.20;;;3.80;;
58990;SDS011;44781;53.444;14.476;2023-05-07T08:05:34;6.70;;;3.80;;
58990;SDS011;44781;53.444;14.476;2023-05-07T08:08:15;6.60;;;3.80;;
58990;SDS011;44781;53.444;14.476;2023-05-07T08:10:45;6.90;;;3.90;;
58990;SDS011;44781;53.444;14.476;2023-05-07T08:13:26;7.50;;;4.00;;
58990;SDS011;44781;53.444;14.476;2023-05-07T08:15:59;7.20;;;3.50;;
58990;SDS011;44781;53.444;14.476;2023-05-07T08:18:34;6.40;;;3.50;;
58990;SDS011;44781;53.444;14.476;2023-05-07T08:21:04;7.90;;;4.20;;
58990;SDS011;44781;53.444;14.476;2023-05-07T08:23:34;7.60;;;4.00;;
58990;SDS011;44781;53.444;14.476;2023-05-07T08:26:01;6.20;;;3.40;;
58990;SDS011;44781;53.444;14.476;2023-05-07T08:28:29;7.60;;;4.30;;
58990;SDS011;44781;53.444;14.476;2023-05-07T08:30:56;7.40;;;4.30;;
58990;SDS011;44781;53.444;14.476;2023-05-07T08:33:26;6.80;;;3.70;;
58990;SDS011;44781;53.444;14.476;2023-05-07T08:35:54;8.00;;;4.40;;
58990;SDS011;44781;53.444;14.476;2023-05-07T08:38:21;7.80;;;4.00;;
58990;SDS011;44781;53.444;14.476;2023-05-07T08:40:47;7.30;;;4.20;;
58990;SDS011;44781;53.444;14.476;2023-05-07T08:43:21;6.80;;;3.80;;
58990;SDS011;44781;53.444;14.476;2023-05-07T08:45:56;7.40;;;4.00;;
58990;SDS011;44781;53.444;14.476;2023-05-07T08:48:28;6.70;;;3.60;;
58990;SDS011;44781;53.444;14.476;2023-05-07T08:51:05;5.80;;;3.70;;
58990;SDS011;44781;53.444;14.476;2023-05-07T08:53:32;7.30;;;3.80;;
58990;SDS011;44781;53.444;14.476;2023-05-07T08:56:00;7.10;;;3.50;;
58990;SDS011;44781;53.444;14.476;2023-05-07T08:58:29;7.70;;;4.20;;
58990;SDS011;44781;53.444;14.476;2023-05-07T09:00:56;6.90;;;3.90;;
58990;SDS011;44781;53.444;14.476;2023-05-07T09:03:24;6.50;;;3.70;;
58990;SDS011;44781;53.444;14.476;2023-05-07T09:05:52;5.60;;;3.20;;
58990;SDS011;44781;53.444;14.476;2023-05-07T09:08:23;6.60;;;3.50;;
58990;SDS011;44781;53.444;14.476;2023-05-07T09:10:53;5.90;;;3.20;;
58990;SDS011;44781;53.444;14.476;2023-05-07T09:13:20;7.00;;;3.50;;
58990;SDS011;44781;53.444;14.476;2023-05-07T09:15:47;6.40;;;3.70;;
58990;SDS011;44781;53.444;14.476;2023-05-07T09:18:15;8.10;;;3.70;;
58990;SDS011;44781;53.444;14.476;2023-05-07T09:20:42;5.40;;;3.10;;
58990;SDS011;44781;53.444;14.476;2023-05-07T09:23:09;5.80;;;3.00;;
58990;SDS011;44781;53.444;14.476;2023-05-07T09:25:36;5.50;;;2.90;;
58990;SDS011;44781;53.444;14.476;2023-05-07T09:28:15;6.50;;;3.00;;
58990;SDS011;44781;53.444;14.476;2023-05-07T09:30:45;6.00;;;2.90;;
58990;SDS011;44781;53.444;14.476;2023-05-07T09:33:15;5.90;;;2.80;;
58990;SDS011;44781;53.444;14.476;2023-05-07T09:38:15;6.70;;;2.90;;
58990;SDS011;44781;53.444;14.476;2023-05-07T09:40:47;5.00;;;2.80;;
58990;SDS011;44781;53.444;14.476;2023-05-07T09:43:17;6.20;;;2.80;;
58990;SDS011;44781;53.444;14.476;2023-05-07T09:45:54;5.50;;;2.70;;
58990;SDS011;44781;53.444;14.476;2023-05-07T09:48:23;4.90;;;2.60;;
58990;SDS011;44781;53.444;14.476;2023-05-07T09:50:54;6.80;;;3.30;;
58990;SDS011;44781;53.444;14.476;2023-05-07T09:53:29;6.30;;;2.90;;
58990;SDS011;44781;53.444;14.476;2023-05-07T09:55:57;4.80;;;2.70;;
58990;SDS011;44781;53.444;14.476;2023-05-07T09:58:25;5.20;;;2.70;;
58990;SDS011;44781;53.444;14.476;2023-05-07T10:00:53;5.10;;;2.70;;
58990;SDS011;44781;53.444;14.476;2023-05-07T10:03:24;5.30;;;2.50;;
58990;SDS011;44781;53.444;14.476;2023-05-07T10:06:01;6.00;;;2.80;;
58990;SDS011;44781;53.444;14.476;2023-05-07T10:08:31;4.40;;;2.60;;
58990;SDS011;44781;53.444;14.476;2023-05-07T10:10:59;7.00;;;2.80;;
58990;SDS011;44781;53.444;14.476;2023-05-07T10:13:28;7.40;;;3.20;;
58990;SDS011;44781;53.444;14.476;2023-05-07T10:15:59;6.30;;;3.20;;
58990;SDS011;44781;53.444;14.476;2023-05-07T10:18:30;5.40;;;3.10;;
58990;SDS011;44781;53.444;14.476;2023-05-07T10:23:50;6.30;;;2.90;;
58990;SDS011;44781;53.444;14.476;2023-05-07T10:26:23;5.30;;;2.60;;
58990;SDS011;44781;53.444;14.476;2023-05-07T10:28:57;6.80;;;3.10;;
58990;SDS011;44781;53.444;14.476;2023-05-07T10:34:29;7.90;;;3.50;;
58990;SDS011;44781;53.444;14.476;2023-05-07T10:37:01;6.40;;;3.00;;
58990;SDS011;44781;53.444;14.476;2023-05-07T10:39:30;6.40;;;3.10;;
58990;SDS011;44781;53.444;14.476;2023-05-07T10:42:07;6.30;;;2.90;;
58990;SDS011;44781;53.444;14.476;2023-05-07T10:44:39;6.00;;;3.30;;
58990;SDS011;44781;53.444;14.476;2023-05-07T10:47:11;8.00;;;3.10;;
58990;SDS011;44781;53.444;14.476;2023-05-07T10:57:48;8.30;;;3.30;;
58990;SDS011;44781;53.444;14.476;2023-05-07T11:05:32;6.90;;;3.40;;
58990;SDS011;44781;53.444;14.476;2023-05-07T11:08:07;7.40;;;3.00;;
58990;SDS011;44781;53.444;14.476;2023-05-07T11:10:52;6.30;;;3.10;;
58990;SDS011;44781;53.444;14.476;2023-05-07T11:13:46;5.90;;;3.30;;
58990;SDS011;44781;53.444;14.476;2023-05-07T11:16:34;6.50;;;3.20;;
58990;SDS011;44781;53.444;14.476;2023-05-07T11:22:56;6.10;;;3.10;;
58990;SDS011;44781;53.444;14.476;2023-05-07T11:25:41;6.60;;;2.70;;
58990;SDS011;44781;53.444;14.476;2023-05-07T11:28:18;6.50;;;3.10;;
58990;SDS011;44781;53.444;14.476;2023-05-07T11:30:52;5.80;;;2.80;;
58990;SDS011;44781;53.444;14.476;2023-05-07T11:33:20;6.20;;;2.90;;
58990;SDS011;44781;53.444;14.476;2023-05-07T11:35:49;7.00;;;3.40;;
58990;SDS011;44781;53.444;14.476;2023-05-07T11:38:20;7.80;;;4.60;;
58990;SDS011;44781;53.444;14.476;2023-05-07T11:40:49;6.50;;;3.10;;
58990;SDS011;44781;53.444;14.476;2023-05-07T11:43:17;8.40;;;3.70;;
58990;SDS011;44781;53.444;14.476;2023-05-07T11:45:47;5.30;;;2.90;;
58990;SDS011;44781;53.444;14.476;2023-05-07T11:48:15;5.70;;;2.80;;
58990;SDS011;44781;53.444;14.476;2023-05-07T11:53:25;5.80;;;2.70;;
58990;SDS011;44781;53.444;14.476;2023-05-07T11:55:56;7.20;;;3.80;;
58990;SDS011;44781;53.444;14.476;2023-05-07T11:58:24;5.70;;;2.90;;
58990;SDS011;44781;53.444;14.476;2023-05-07T12:00:54;5.30;;;2.80;;
58990;SDS011;44781;53.444;14.476;2023-05-07T12:03:21;4.60;;;2.70;;
58990;SDS011;44781;53.444;14.476;2023-05-07T12:05:48;5.90;;;2.80;;
58990;SDS011;44781;53.444;14.476;2023-05-07T12:08:16;6.00;;;2.90;;
58990;SDS011;44781;53.444;14.476;2023-05-07T12:10:44;5.40;;;3.10;;
58990;SDS011;44781;53.444;14.476;2023-05-07T12:13:23;6.60;;;3.80;;
58990;SDS011;44781;53.444;14.476;2023-05-07T12:15:55;4.80;;;2.40;;
58990;SDS011;44781;53.444;14.476;2023-05-07T12:18:22;4.40;;;2.30;;
58990;SDS011;44781;53.444;14.476;2023-05-07T12:20:50;4.90;;;2.30;;
58990;SDS011;44781;53.444;14.476;2023-05-07T12:23:17;5.30;;;2.30;;
58990;SDS011;44781;53.444;14.476;2023-05-07T12:25:45;4.90;;;2.10;;
58990;SDS011;44781;53.444;14.476;2023-05-07T12:28:15;5.40;;;2.20;;
58990;SDS011;44781;53.444;14.476;2023-05-07T12:30:43;5.20;;;2.90;;
58990;SDS011;44781;53.444;14.476;2023-05-07T12:33:16;4.80;;;2.30;;
58990;SDS011;44781;53.444;14.476;2023-05-07T12:35:44;4.80;;;2.60;;
58990;SDS011;44781;53.444;14.476;2023-05-07T12:38:12;7.10;;;3.40;;
58990;SDS011;44781;53.444;14.476;2023-05-07T12:40:41;4.80;;;2.50;;
58990;SDS011;44781;53.444;14.476;2023-05-07T12:48:12;5.20;;;2.70;;
58990;SDS011;44781;53.444;14.476;2023-05-07T12:50:40;5.60;;;2.70;;
58990;SDS011;44781;53.444;14.476;2023-05-07T12:53:09;6.10;;;2.60;;
58990;SDS011;44781;53.444;14.476;2023-05-07T13:01:06;6.70;;;2.50;;
58990;SDS011;44781;53.444;14.476;2023-05-07T13:03:36;6.30;;;2.70;;
58990;SDS011;44781;53.444;14.476;2023-05-07T13:06:10;6.70;;;2.90;;
58990;SDS011;44781;53.444;14.476;2023-05-07T13:08:40;7.80;;;2.90;;
58990;SDS011;44781;53.444;14.476;2023-05-07T13:11:11;5.70;;;2.50;;
58990;SDS011;44781;53.444;14.476;2023-05-07T13:13:40;5.70;;;2.30;;
58990;SDS011;44781;53.444;14.476;2023-05-07T13:16:08;5.20;;;2.50;;
58990;SDS011;44781;53.444;14.476;2023-05-07T13:18:41;5.10;;;2.30;;
58990;SDS011;44781;53.444;14.476;2023-05-07T13:21:10;4.60;;;2.60;;
58990;SDS011;44781;53.444;14.476;2023-05-07T13:23:39;6.80;;;2.70;;
58990;SDS011;44781;53.444;14.476;2023-05-07T13:26:07;4.30;;;2.30;;
58990;SDS011;44781;53.444;14.476;2023-05-07T13:28:34;4.90;;;2.60;;
58990;SDS011;44781;53.444;14.476;2023-05-07T13:31:01;5.40;;;2.40;;
58990;SDS011;44781;53.444;14.476;2023-05-07T13:33:29;4.50;;;2.30;;
58990;SDS011;44781;53.444;14.476;2023-05-07T13:35:58;4.20;;;2.20;;
58990;SDS011;44781;53.444;14.476;2023-05-07T13:38:27;4.80;;;2.30;;
58990;SDS011;44781;53.444;14.476;2023-05-07T13:40:54;7.20;;;2.50;;
58990;SDS011;44781;53.444;14.476;2023-05-07T13:43:20;5.20;;;2.50;;
58990;SDS011;44781;53.444;14.476;2023-05-07T13:45:48;5.00;;;2.80;;
58990;SDS011;44781;53.444;14.476;2023-05-07T13:48:14;4.60;;;2.30;;
58990;SDS011;44781;53.444;14.476;2023-05-07T13:50:41;5.10;;;2.50;;
58990;SDS011;44781;53.444;14.476;2023-05-07T13:53:08;5.30;;;2.40;;
58990;SDS011;44781;53.444;14.476;2023-05-07T13:55:35;5.20;;;2.90;;
58990;SDS011;44781;53.444;14.476;2023-05-07T13:58:02;4.20;;;2.50;;
58990;SDS011;44781;53.444;14.476;2023-05-07T14:00:29;5.40;;;2.90;;
58990;SDS011;44781;53.444;14.476;2023-05-07T14:02:56;4.40;;;2.20;;
58990;SDS011;44781;53.444;14.476;2023-05-07T14:05:24;6.10;;;2.60;;
58990;SDS011;44781;53.444;14.476;2023-05-07T14:07:51;4.90;;;2.50;;
58990;SDS011;44781;53.444;14.476;2023-05-07T14:10:18;4.50;;;2.60;;
58990;SDS011;44781;53.444;14.476;2023-05-07T14:12:46;6.60;;;2.80;;
58990;SDS011;44781;53.444;14.476;2023-05-07T14:15:14;4.60;;;2.70;;
58990;SDS011;44781;53.444;14.476;2023-05-07T14:17:42;5.50;;;2.80;;
58990;SDS011;44781;53.444;14.476;2023-05-07T14:20:11;5.20;;;2.50;;
58990;SDS011;44781;53.444;14.476;2023-05-07T14:22:38;5.30;;;2.70;;
58990;SDS011;44781;53.444;14.476;2023-05-07T14:25:06;5.60;;;2.80;;
58990;SDS011;44781;53.444;14.476;2023-05-07T14:27:33;6.30;;;2.90;;
58990;SDS011;44781;53.444;14.476;2023-05-07T14:30:00;4.60;;;2.50;;
58990;SDS011;44781;53.444;14.476;2023-05-07T14:32:27;5.90;;;2.60;;
58990;SDS011;44781;53.444;14.476;2023-05-07T14:34:54;4.60;;;2.50;;
58990;SDS011;44781;53.444;14.476;2023-05-07T14:37:21;4.90;;;2.40;;
58990;SDS011;44781;53.444;14.476;2023-05-07T14:39:48;5.00;;;2.40;;
58990;SDS011;44781;53.444;14.476;2023-05-07T14:42:15;5.50;;;2.40;;
58990;SDS011;44781;53.444;14.476;2023-05-07T14:44:43;5.00;;;2.50;;
58990;SDS011;44781;53.444;14.476;2023-05-07T14:47:12;5.40;;;2.50;;
58990;SDS011;44781;53.444;14.476;2023-05-07T14:49:39;5.00;;;2.30;;
58990;SDS011;44781;53.444;14.476;2023-05-07T14:52:08;5.80;;;2.40;;
58990;SDS011;44781;53.444;14.476;2023-05-07T14:54:36;4.40;;;2.30;;
58990;SDS011;44781;53.444;14.476;2023-05-07T14:57:05;4.20;;;2.30;;
58990;SDS011;44781;53.444;14.476;2023-05-07T14:59:33;4.90;;;2.30;;
58990;SDS011;44781;53.444;14.476;2023-05-07T15:02:00;4.20;;;2.20;;
58990;SDS011;44781;53.444;14.476;2023-05-07T15:04:28;6.20;;;2.40;;
58990;SDS011;44781;53.444;14.476;2023-05-07T15:06:55;5.10;;;2.70;;
58990;SDS011;44781;53.444;14.476;2023-05-07T15:09:23;7.10;;;2.60;;
58990;SDS011;44781;53.444;14.476;2023-05-07T15:11:50;6.50;;;2.90;;
58990;SDS011;44781;53.444;14.476;2023-05-07T15:14:19;5.70;;;2.40;;
58990;SDS011;44781;53.444;14.476;2023-05-07T15:16:48;5.10;;;2.50;;
58990;SDS011;44781;53.444;14.476;2023-05-07T15:19:16;4.70;;;2.70;;
58990;SDS011;44781;53.444;14.476;2023-05-07T15:21:43;5.00;;;2.50;;